sensor_id;sensor_type;location;lat;lon;timestamp;P1;durP1;ratioP1;P2;durP2;ratioP2
67798;SDS011;54596;43.216;27.904;2022-09-09T00:00:40;8.27;;;3.50;;
67798;SDS011;54596;43.216;27.904;2022-09-09T00:03:16;8.63;;;4.28;;
67798;SDS011;54596;43.216;27.904;2022-09-09T00:08:53;6.07;;;2.72;;
67798;SDS011;54596;43.216;27.904;2022-09-09T00:13:57;6.80;;;2.80;;
67798;SDS011;54596;43.216;27.904;2022-09-09T00:16:25;6.65;;;2.67;;
67798;SDS011;54596;43.216;27.904;2022-09-09T00:21:37;8.43;;;2.78;;
67798;SDS011;54596;43.216;27.904;2022-09-09T00:24:11;9.88;;;2.80;;
67798;SDS011;54596;43.216;27.904;2022-09-09T00:26:51;9.43;;;2.83;;
67798;SDS011;54596;43.216;27.904;2022-09-09T00:29:29;8.50;;;3.10;;
67798;SDS011;54596;43.216;27.904;2022-09-09T00:32:13;8.85;;;2.92;;
67798;SDS011;54596;43.216;27.904;2022-09-09T00:34:46;8.77;;;2.72;;
67798;SDS011;54596;43.216;27.904;2022-09-09T00:37:22;5.80;;;2.70;;
67798;SDS011;54596;43.216;27.904;2022-09-09T00:39:50;6.85;;;2.80;;
67798;SDS011;54596;43.216;27.904;2022-09-09T00:42:36;6.20;;;2.88;;
67798;SDS011;54596;43.216;27.904;2022-09-09T00:45:17;8.13;;;3.17;;
67798;SDS011;54596;43.216;27.904;2022-09-09T00:47:56;7.32;;;2.70;;
67798;SDS011;54596;43.216;27.904;2022-09-09T00:55:38;7.15;;;2.97;;
67798;SDS011;54596;43.216;27.904;2022-09-09T00:58:06;6.20;;;2.78;;
67798;SDS011;54596;43.216;27.904;2022-09-09T01:03:22;6.88;;;2.75;;
67798;SDS011;54596;43.216;27.904;2022-09-09T01:08:57;9.93;;;3.28;;
67798;SDS011;54596;43.216;27.904;2022-09-09T01:14:11;7.72;;;2.72;;
67798;SDS011;54596;43.216;27.904;2022-09-09T01:16:45;8.52;;;2.60;;
67798;SDS011;54596;43.216;27.904;2022-09-09T01:19:14;6.63;;;2.60;;
67798;SDS011;54596;43.216;27.904;2022-09-09T01:21:56;6.95;;;2.80;;
67798;SDS011;54596;43.216;27.904;2022-09-09T01:24:38;7.35;;;2.78;;
67798;SDS011;54596;43.216;27.904;2022-09-09T01:27:11;9.77;;;2.97;;
67798;SDS011;54596;43.216;27.904;2022-09-09T01:29:38;9.27;;;2.88;;
67798;SDS011;54596;43.216;27.904;2022-09-09T01:35:15;10.75;;;3.70;;
67798;SDS011;54596;43.216;27.904;2022-09-09T01:37:55;11.30;;;4.50;;
67798;SDS011;54596;43.216;27.904;2022-09-09T01:40:20;10.70;;;5.30;;
67798;SDS011;54596;43.216;27.904;2022-09-09T01:42:46;13.23;;;5.10;;
67798;SDS011;54596;43.216;27.904;2022-09-09T01:45:12;13.10;;;5.03;;
67798;SDS011;54596;43.216;27.904;2022-09-09T01:47:38;9.82;;;4.50;;
67798;SDS011;54596;43.216;27.904;2022-09-09T01:50:03;9.68;;;4.20;;
67798;SDS011;54596;43.216;27.904;2022-09-09T01:52:29;10.30;;;4.15;;
67798;SDS011;54596;43.216;27.904;2022-09-09T01:54:57;8.15;;;3.80;;
67798;SDS011;54596;43.216;27.904;2022-09-09T01:57:31;9.32;;;4.20;;
67798;SDS011;54596;43.216;27.904;2022-09-09T02:00:08;10.75;;;4.10;;
67798;SDS011;54596;43.216;27.904;2022-09-09T02:02:43;11.98;;;4.88;;
67798;SDS011;54596;43.216;27.904;2022-09-09T02:10:45;11.73;;;4.82;;
67798;SDS011;54596;43.216;27.904;2022-09-09T02:13:15;14.07;;;4.88;;
67798;SDS011;54596;43.216;27.904;2022-09-09T02:15:51;11.75;;;4.38;;
67798;SDS011;54596;43.216;27.904;2022-09-09T02:18:24;12.27;;;4.60;;
67798;SDS011;54596;43.216;27.904;2022-09-09T02:20:57;11.13;;;5.07;;
67798;SDS011;54596;43.216;27.904;2022-09-09T02:23:24;14.93;;;6.20;;
67798;SDS011;54596;43.216;27.904;2022-09-09T02:25:50;11.60;;;5.40;;
67798;SDS011;54596;43.216;27.904;2022-09-09T02:28:18;15.63;;;6.50;;
67798;SDS011;54596;43.216;27.904;2022-09-09T02:30:46;16.60;;;7.75;;
67798;SDS011;54596;43.216;27.904;2022-09-09T02:33:18;13.02;;;5.70;;
67798;SDS011;54596;43.216;27.904;2022-09-09T02:35:45;12.57;;;5.38;;
67798;SDS011;54596;43.216;27.904;2022-09-09T02:38:12;11.25;;;4.80;;
67798;SDS011;54596;43.216;27.904;2022-09-09T02:40:40;10.18;;;4.20;;
67798;SDS011;54596;43.216;27.904;2022-09-09T02:43:05;11.80;;;3.85;;
67798;SDS011;54596;43.216;27.904;2022-09-09T02:45:34;9.90;;;3.75;;
67798;SDS011;54596;43.216;27.904;2022-09-09T02:50:58;9.32;;;3.50;;
67798;SDS011;54596;43.216;27.904;2022-09-09T02:56:16;12.82;;;3.70;;
67798;SDS011;54596;43.216;27.904;2022-09-09T02:58:43;13.25;;;3.80;;
67798;SDS011;54596;43.216;27.904;2022-09-09T03:01:09;12.32;;;4.30;;
67798;SDS011;54596;43.216;27.904;2022-09-09T03:03:35;15.68;;;3.97;;
67798;SDS011;54596;43.216;27.904;2022-09-09T03:06:01;12.00;;;3.95;;
67798;SDS011;54596;43.216;27.904;2022-09-09T03:08:26;16.42;;;4.20;;
67798;SDS011;54596;43.216;27.904;2022-09-09T03:10:54;13.77;;;4.45;;
67798;SDS011;54596;43.216;27.904;2022-09-09T03:13:20;13.85;;;4.25;;
67798;SDS011;54596;43.216;27.904;2022-09-09T03:15:45;15.02;;;4.10;;
67798;SDS011;54596;43.216;27.904;2022-09-09T03:18:13;15.48;;;4.43;;
67798;SDS011;54596;43.216;27.904;2022-09-09T03:20:38;15.93;;;4.28;;
67798;SDS011;54596;43.216;27.904;2022-09-09T03:23:04;13.45;;;3.95;;
67798;SDS011;54596;43.216;27.904;2022-09-09T03:25:29;13.23;;;4.20;;
67798;SDS011;54596;43.216;27.904;2022-09-09T03:27:55;14.27;;;4.38;;
67798;SDS011;54596;43.216;27.904;2022-09-09T03:30:21;17.95;;;4.57;;
67798;SDS011;54596;43.216;27.904;2022-09-09T03:32:48;13.63;;;5.20;;
67798;SDS011;54596;43.216;27.904;2022-09-09T03:35:13;10.40;;;3.85;;
67798;SDS011;54596;43.216;27.904;2022-09-09T03:37:42;13.30;;;4.07;;
67798;SDS011;54596;43.216;27.904;2022-09-09T03:40:08;15.00;;;4.25;;
67798;SDS011;54596;43.216;27.904;2022-09-09T03:42:35;16.10;;;4.65;;
67798;SDS011;54596;43.216;27.904;2022-09-09T03:45:02;13.30;;;5.00;;
67798;SDS011;54596;43.216;27.904;2022-09-09T03:47:32;12.82;;;4.03;;
67798;SDS011;54596;43.216;27.904;2022-09-09T03:49:58;14.07;;;4.15;;
67798;SDS011;54596;43.216;27.904;2022-09-09T03:52:23;13.63;;;4.35;;
67798;SDS011;54596;43.216;27.904;2022-09-09T03:54:51;17.13;;;4.60;;
67798;SDS011;54596;43.216;27.904;2022-09-09T03:57:18;12.88;;;4.72;;
67798;SDS011;54596;43.216;27.904;2022-09-09T03:59:44;14.18;;;4.90;;
67798;SDS011;54596;43.216;27.904;2022-09-09T04:02:09;23.95;;;5.35;;
67798;SDS011;54596;43.216;27.904;2022-09-09T04:04:35;22.30;;;5.53;;
67798;SDS011;54596;43.216;27.904;2022-09-09T04:07:00;17.38;;;5.47;;
67798;SDS011;54596;43.216;27.904;2022-09-09T04:09:26;17.20;;;5.10;;
67798;SDS011;54596;43.216;27.904;2022-09-09T04:11:52;17.13;;;4.80;;
67798;SDS011;54596;43.216;27.904;2022-09-09T04:14:18;13.25;;;4.82;;
67798;SDS011;54596;43.216;27.904;2022-09-09T04:16:44;17.90;;;5.30;;
67798;SDS011;54596;43.216;27.904;2022-09-09T04:19:11;18.33;;;5.13;;
67798;SDS011;54596;43.216;27.904;2022-09-09T04:21:39;19.20;;;5.53;;
67798;SDS011;54596;43.216;27.904;2022-09-09T04:24:06;20.58;;;5.75;;
67798;SDS011;54596;43.216;27.904;2022-09-09T04:26:34;24.90;;;5.80;;
67798;SDS011;54596;43.216;27.904;2022-09-09T04:29:04;18.58;;;5.45;;
67798;SDS011;54596;43.216;27.904;2022-09-09T04:31:33;21.13;;;6.18;;
67798;SDS011;54596;43.216;27.904;2022-09-09T04:33:58;24.95;;;6.40;;
67798;SDS011;54596;43.216;27.904;2022-09-09T04:36:29;19.13;;;6.37;;
67798;SDS011;54596;43.216;27.904;2022-09-09T04:38:56;20.20;;;6.00;;
67798;SDS011;54596;43.216;27.904;2022-09-09T04:41:22;21.50;;;6.20;;
67798;SDS011;54596;43.216;27.904;2022-09-09T04:43:48;19.48;;;6.60;;
67798;SDS011;54596;43.216;27.904;2022-09-09T04:46:13;50.72;;;28.27;;
67798;SDS011;54596;43.216;27.904;2022-09-09T04:48:40;33.63;;;14.18;;
67798;SDS011;54596;43.216;27.904;2022-09-09T04:51:06;26.27;;;7.82;;
67798;SDS011;54596;43.216;27.904;2022-09-09T04:53:34;22.55;;;6.82;;
67798;SDS011;54596;43.216;27.904;2022-09-09T04:56:04;21.15;;;6.80;;
67798;SDS011;54596;43.216;27.904;2022-09-09T04:58:31;20.00;;;6.50;;
67798;SDS011;54596;43.216;27.904;2022-09-09T05:01:04;22.60;;;8.15;;
67798;SDS011;54596;43.216;27.904;2022-09-09T05:03:34;26.98;;;8.48;;
67798;SDS011;54596;43.216;27.904;2022-09-09T05:06:09;24.02;;;8.52;;
67798;SDS011;54596;43.216;27.904;2022-09-09T05:08:40;20.80;;;7.85;;
67798;SDS011;54596;43.216;27.904;2022-09-09T05:11:20;22.70;;;7.13;;
67798;SDS011;54596;43.216;27.904;2022-09-09T05:13:53;18.85;;;6.68;;
67798;SDS011;54596;43.216;27.904;2022-09-09T05:16:19;17.25;;;6.38;;
67798;SDS011;54596;43.216;27.904;2022-09-09T05:18:46;11.77;;;4.28;;
67798;SDS011;54596;43.216;27.904;2022-09-09T05:21:12;11.00;;;3.55;;
67798;SDS011;54596;43.216;27.904;2022-09-09T05:23:39;11.48;;;3.40;;
67798;SDS011;54596;43.216;27.904;2022-09-09T05:26:05;10.63;;;3.95;;
67798;SDS011;54596;43.216;27.904;2022-09-09T05:28:33;11.57;;;4.32;;
67798;SDS011;54596;43.216;27.904;2022-09-09T05:31:07;9.63;;;3.00;;
67798;SDS011;54596;43.216;27.904;2022-09-09T05:33:34;8.25;;;2.70;;
67798;SDS011;54596;43.216;27.904;2022-09-09T05:36:04;9.90;;;3.40;;
67798;SDS011;54596;43.216;27.904;2022-09-09T05:38:32;8.43;;;3.10;;
67798;SDS011;54596;43.216;27.904;2022-09-09T05:40:59;10.23;;;4.55;;
67798;SDS011;54596;43.216;27.904;2022-09-09T05:43:25;17.45;;;10.07;;
67798;SDS011;54596;43.216;27.904;2022-09-09T05:46:25;7.72;;;2.40;;
67798;SDS011;54596;43.216;27.904;2022-09-09T05:48:48;10.88;;;4.05;;
67798;SDS011;54596;43.216;27.904;2022-09-09T05:51:22;13.23;;;3.60;;
67798;SDS011;54596;43.216;27.904;2022-09-09T05:53:49;14.35;;;2.65;;
67798;SDS011;54596;43.216;27.904;2022-09-09T05:56:17;10.95;;;2.08;;
67798;SDS011;54596;43.216;27.904;2022-09-09T05:58:44;7.53;;;2.40;;
67798;SDS011;54596;43.216;27.904;2022-09-09T06:01:15;5.35;;;2.00;;
67798;SDS011;54596;43.216;27.904;2022-09-09T06:03:42;11.38;;;4.18;;
67798;SDS011;54596;43.216;27.904;2022-09-09T06:06:13;10.50;;;3.50;;
67798;SDS011;54596;43.216;27.904;2022-09-09T06:08:41;11.15;;;3.42;;
67798;SDS011;54596;43.216;27.904;2022-09-09T06:11:16;6.90;;;2.00;;
67798;SDS011;54596;43.216;27.904;2022-09-09T06:13:43;5.70;;;1.85;;
67798;SDS011;54596;43.216;27.904;2022-09-09T06:16:12;6.18;;;1.98;;
67798;SDS011;54596;43.216;27.904;2022-09-09T06:18:39;8.98;;;2.13;;
67798;SDS011;54596;43.216;27.904;2022-09-09T06:21:06;7.00;;;2.05;;
67798;SDS011;54596;43.216;27.904;2022-09-09T06:23:42;9.25;;;2.38;;
67798;SDS011;54596;43.216;27.904;2022-09-09T06:26:13;6.45;;;1.90;;
67798;SDS011;54596;43.216;27.904;2022-09-09T06:28:41;6.55;;;2.10;;
67798;SDS011;54596;43.216;27.904;2022-09-09T06:31:09;7.80;;;2.10;;
67798;SDS011;54596;43.216;27.904;2022-09-09T06:33:40;5.43;;;1.90;;
67798;SDS011;54596;43.216;27.904;2022-09-09T06:36:13;6.10;;;2.10;;
67798;SDS011;54596;43.216;27.904;2022-09-09T06:38:40;8.27;;;2.20;;
67798;SDS011;54596;43.216;27.904;2022-09-09T06:41:07;8.05;;;2.47;;
67798;SDS011;54596;43.216;27.904;2022-09-09T06:43:34;4.70;;;1.90;;
67798;SDS011;54596;43.216;27.904;2022-09-09T06:46:01;4.85;;;1.83;;
67798;SDS011;54596;43.216;27.904;2022-09-09T06:48:36;7.70;;;2.40;;
67798;SDS011;54596;43.216;27.904;2022-09-09T06:51:05;5.50;;;1.77;;
67798;SDS011;54596;43.216;27.904;2022-09-09T06:53:33;8.32;;;2.80;;
67798;SDS011;54596;43.216;27.904;2022-09-09T06:56:03;7.15;;;2.10;;
67798;SDS011;54596;43.216;27.904;2022-09-09T06:58:43;6.03;;;2.40;;
67798;SDS011;54596;43.216;27.904;2022-09-09T07:01:11;4.45;;;1.90;;
67798;SDS011;54596;43.216;27.904;2022-09-09T07:03:38;6.68;;;1.90;;
67798;SDS011;54596;43.216;27.904;2022-09-09T07:06:04;7.32;;;2.10;;
67798;SDS011;54596;43.216;27.904;2022-09-09T07:08:30;6.22;;;1.88;;
67798;SDS011;54596;43.216;27.904;2022-09-09T07:11:01;4.68;;;1.90;;
67798;SDS011;54596;43.216;27.904;2022-09-09T07:13:31;7.57;;;2.00;;
67798;SDS011;54596;43.216;27.904;2022-09-09T07:16:07;7.75;;;2.03;;
67798;SDS011;54596;43.216;27.904;2022-09-09T07:18:34;6.10;;;2.10;;
67798;SDS011;54596;43.216;27.904;2022-09-09T07:21:00;7.28;;;1.90;;
67798;SDS011;54596;43.216;27.904;2022-09-09T07:23:27;6.28;;;1.80;;
67798;SDS011;54596;43.216;27.904;2022-09-09T07:25:53;5.95;;;2.08;;
67798;SDS011;54596;43.216;27.904;2022-09-09T07:28:22;8.05;;;2.00;;
67798;SDS011;54596;43.216;27.904;2022-09-09T07:30:57;7.28;;;2.75;;
67798;SDS011;54596;43.216;27.904;2022-09-09T07:33:27;5.63;;;1.73;;
67798;SDS011;54596;43.216;27.904;2022-09-09T07:36:01;6.38;;;2.00;;
67798;SDS011;54596;43.216;27.904;2022-09-09T07:38:28;7.15;;;1.98;;
67798;SDS011;54596;43.216;27.904;2022-09-09T07:41:02;8.07;;;2.40;;
67798;SDS011;54596;43.216;27.904;2022-09-09T07:43:29;6.70;;;2.00;;
67798;SDS011;54596;43.216;27.904;2022-09-09T07:45:57;7.55;;;2.05;;
67798;SDS011;54596;43.216;27.904;2022-09-09T07:48:26;8.13;;;1.90;;
67798;SDS011;54596;43.216;27.904;2022-09-09T07:50:52;5.00;;;1.80;;
67798;SDS011;54596;43.216;27.904;2022-09-09T07:53:17;4.82;;;1.83;;
67798;SDS011;54596;43.216;27.904;2022-09-09T07:55:44;5.75;;;2.03;;
67798;SDS011;54596;43.216;27.904;2022-09-09T07:58:10;5.05;;;1.70;;
67798;SDS011;54596;43.216;27.904;2022-09-09T08:00:35;6.35;;;1.70;;
67798;SDS011;54596;43.216;27.904;2022-09-09T08:03:01;4.78;;;1.70;;
67798;SDS011;54596;43.216;27.904;2022-09-09T08:05:27;4.70;;;1.70;;
67798;SDS011;54596;43.216;27.904;2022-09-09T08:07:52;4.55;;;1.83;;
67798;SDS011;54596;43.216;27.904;2022-09-09T08:10:18;5.53;;;1.90;;
67798;SDS011;54596;43.216;27.904;2022-09-09T08:12:43;9.38;;;2.20;;
67798;SDS011;54596;43.216;27.904;2022-09-09T08:15:10;5.78;;;2.00;;
67798;SDS011;54596;43.216;27.904;2022-09-09T08:17:36;5.03;;;1.67;;
67798;SDS011;54596;43.216;27.904;2022-09-09T08:20:03;5.38;;;1.90;;
67798;SDS011;54596;43.216;27.904;2022-09-09T08:22:31;5.05;;;2.00;;
67798;SDS011;54596;43.216;27.904;2022-09-09T08:24:57;9.68;;;2.45;;
67798;SDS011;54596;43.216;27.904;2022-09-09T08:27:22;8.00;;;1.98;;
67798;SDS011;54596;43.216;27.904;2022-09-09T08:29:49;8.88;;;2.00;;
67798;SDS011;54596;43.216;27.904;2022-09-09T08:32:14;6.22;;;2.10;;
67798;SDS011;54596;43.216;27.904;2022-09-09T08:34:41;5.57;;;1.98;;
67798;SDS011;54596;43.216;27.904;2022-09-09T08:37:07;6.40;;;2.17;;
67798;SDS011;54596;43.216;27.904;2022-09-09T08:39:32;8.88;;;2.00;;
67798;SDS011;54596;43.216;27.904;2022-09-09T08:52:27;7.35;;;2.28;;
67798;SDS011;54596;43.216;27.904;2022-09-09T08:55:11;6.25;;;2.20;;
67798;SDS011;54596;43.216;27.904;2022-09-09T08:57:48;5.35;;;1.90;;
67798;SDS011;54596;43.216;27.904;2022-09-09T09:00:17;6.80;;;2.28;;
67798;SDS011;54596;43.216;27.904;2022-09-09T09:02:46;6.43;;;2.10;;
67798;SDS011;54596;43.216;27.904;2022-09-09T09:08:43;5.53;;;2.05;;
67798;SDS011;54596;43.216;27.904;2022-09-09T09:11:15;5.50;;;1.80;;
67798;SDS011;54596;43.216;27.904;2022-09-09T09:16:19;5.20;;;2.00;;
67798;SDS011;54596;43.216;27.904;2022-09-09T09:22:00;5.75;;;2.05;;
67798;SDS011;54596;43.216;27.904;2022-09-09T09:24:19;6.15;;;2.20;;
67798;SDS011;54596;43.216;27.904;2022-09-09T09:26:49;7.95;;;2.10;;
67798;SDS011;54596;43.216;27.904;2022-09-09T09:29:16;10.60;;;2.38;;
67798;SDS011;54596;43.216;27.904;2022-09-09T09:31:48;7.15;;;2.30;;
67798;SDS011;54596;43.216;27.904;2022-09-09T09:34:27;6.30;;;2.10;;
67798;SDS011;54596;43.216;27.904;2022-09-09T09:36:56;6.85;;;2.20;;
67798;SDS011;54596;43.216;27.904;2022-09-09T09:39:27;4.30;;;2.00;;
67798;SDS011;54596;43.216;27.904;2022-09-09T09:41:55;6.80;;;1.92;;
67798;SDS011;54596;43.216;27.904;2022-09-09T09:44:31;9.98;;;2.30;;
67798;SDS011;54596;43.216;27.904;2022-09-09T09:49:50;7.70;;;2.20;;
67798;SDS011;54596;43.216;27.904;2022-09-09T09:52:22;8.18;;;1.90;;
67798;SDS011;54596;43.216;27.904;2022-09-09T09:54:50;6.55;;;2.25;;
67798;SDS011;54596;43.216;27.904;2022-09-09T09:57:17;5.57;;;2.10;;
67798;SDS011;54596;43.216;27.904;2022-09-09T09:59:48;6.20;;;2.30;;
67798;SDS011;54596;43.216;27.904;2022-09-09T10:04:39;6.47;;;2.00;;
67798;SDS011;54596;43.216;27.904;2022-09-09T10:07:19;4.80;;;2.15;;
67798;SDS011;54596;43.216;27.904;2022-09-09T10:09:52;6.90;;;2.00;;
67798;SDS011;54596;43.216;27.904;2022-09-09T10:28:42;5.47;;;2.10;;
67798;SDS011;54596;43.216;27.904;2022-09-09T10:36:29;9.82;;;2.72;;
67798;SDS011;54596;43.216;27.904;2022-09-09T10:47:35;9.57;;;2.60;;
67798;SDS011;54596;43.216;27.904;2022-09-09T10:50:22;7.93;;;2.15;;
67798;SDS011;54596;43.216;27.904;2022-09-09T10:55:51;7.90;;;2.30;;
67798;SDS011;54596;43.216;27.904;2022-09-09T10:58:29;9.48;;;2.33;;
67798;SDS011;54596;43.216;27.904;2022-09-09T11:01:02;7.28;;;2.08;;
67798;SDS011;54596;43.216;27.904;2022-09-09T11:03:35;8.32;;;2.30;;
67798;SDS011;54596;43.216;27.904;2022-09-09T11:06:05;6.70;;;2.00;;
67798;SDS011;54596;43.216;27.904;2022-09-09T11:08:37;7.90;;;2.53;;
67798;SDS011;54596;43.216;27.904;2022-09-09T11:11:06;6.50;;;2.10;;
67798;SDS011;54596;43.216;27.904;2022-09-09T11:13:47;7.03;;;2.05;;
67798;SDS011;54596;43.216;27.904;2022-09-09T11:19:30;7.03;;;1.95;;
67798;SDS011;54596;43.216;27.904;2022-09-09T11:22:00;5.30;;;2.10;;
67798;SDS011;54596;43.216;27.904;2022-09-09T11:24:32;7.07;;;2.10;;
67798;SDS011;54596;43.216;27.904;2022-09-09T11:27:15;5.63;;;1.95;;
67798;SDS011;54596;43.216;27.904;2022-09-09T11:30:25;5.93;;;2.13;;
67798;SDS011;54596;43.216;27.904;2022-09-09T11:38:40;7.22;;;2.20;;
67798;SDS011;54596;43.216;27.904;2022-09-09T11:41:07;9.27;;;2.25;;
67798;SDS011;54596;43.216;27.904;2022-09-09T11:46:09;6.40;;;2.10;;
67798;SDS011;54596;43.216;27.904;2022-09-09T11:51:07;6.72;;;2.35;;
67798;SDS011;54596;43.216;27.904;2022-09-09T11:53:35;5.60;;;1.95;;
67798;SDS011;54596;43.216;27.904;2022-09-09T11:56:13;5.68;;;2.38;;
67798;SDS011;54596;43.216;27.904;2022-09-09T12:01:50;9.30;;;2.35;;
67798;SDS011;54596;43.216;27.904;2022-09-09T12:04:50;7.88;;;2.40;;
67798;SDS011;54596;43.216;27.904;2022-09-09T12:07:30;6.45;;;2.10;;
67798;SDS011;54596;43.216;27.904;2022-09-09T12:10:02;6.47;;;2.03;;
67798;SDS011;54596;43.216;27.904;2022-09-09T12:12:38;8.15;;;2.30;;
67798;SDS011;54596;43.216;27.904;2022-09-09T12:17:37;6.63;;;2.20;;
67798;SDS011;54596;43.216;27.904;2022-09-09T12:20:18;7.70;;;3.05;;
67798;SDS011;54596;43.216;27.904;2022-09-09T12:28:39;4.10;;;1.92;;
67798;SDS011;54596;43.216;27.904;2022-09-09T12:34:09;6.32;;;2.10;;
67798;SDS011;54596;43.216;27.904;2022-09-09T12:36:39;9.15;;;2.20;;
67798;SDS011;54596;43.216;27.904;2022-09-09T12:39:10;5.78;;;2.05;;
67798;SDS011;54596;43.216;27.904;2022-09-09T12:41:52;5.68;;;1.90;;
67798;SDS011;54596;43.216;27.904;2022-09-09T12:44:23;5.50;;;1.95;;
67798;SDS011;54596;43.216;27.904;2022-09-09T12:46:50;7.13;;;2.20;;
67798;SDS011;54596;43.216;27.904;2022-09-09T12:52:01;6.10;;;1.90;;
67798;SDS011;54596;43.216;27.904;2022-09-09T12:54:30;8.07;;;2.33;;
67798;SDS011;54596;43.216;27.904;2022-09-09T12:56:57;6.50;;;2.10;;
67798;SDS011;54596;43.216;27.904;2022-09-09T12:59:24;7.35;;;2.20;;
67798;SDS011;54596;43.216;27.904;2022-09-09T13:01:55;8.82;;;2.10;;
67798;SDS011;54596;43.216;27.904;2022-09-09T13:04:24;9.80;;;2.33;;
67798;SDS011;54596;43.216;27.904;2022-09-09T13:06:50;7.22;;;2.28;;
67798;SDS011;54596;43.216;27.904;2022-09-09T13:09:17;7.03;;;2.22;;
67798;SDS011;54596;43.216;27.904;2022-09-09T13:11:43;7.35;;;2.10;;
67798;SDS011;54596;43.216;27.904;2022-09-09T13:17:17;5.82;;;2.10;;
67798;SDS011;54596;43.216;27.904;2022-09-09T13:19:45;9.68;;;2.40;;
67798;SDS011;54596;43.216;27.904;2022-09-09T13:22:12;5.00;;;2.08;;
67798;SDS011;54596;43.216;27.904;2022-09-09T13:24:39;8.95;;;2.40;;
67798;SDS011;54596;43.216;27.904;2022-09-09T13:27:24;5.95;;;2.20;;
67798;SDS011;54596;43.216;27.904;2022-09-09T13:29:55;6.93;;;2.40;;
67798;SDS011;54596;43.216;27.904;2022-09-09T13:32:21;10.10;;;2.60;;
67798;SDS011;54596;43.216;27.904;2022-09-09T13:34:51;6.78;;;2.38;;
67798;SDS011;54596;43.216;27.904;2022-09-09T13:37:34;8.20;;;2.80;;
67798;SDS011;54596;43.216;27.904;2022-09-09T13:40:01;8.18;;;2.55;;
67798;SDS011;54596;43.216;27.904;2022-09-09T13:42:28;8.27;;;2.72;;
67798;SDS011;54596;43.216;27.904;2022-09-09T13:44:56;6.55;;;2.60;;
67798;SDS011;54596;43.216;27.904;2022-09-09T13:47:31;7.85;;;2.72;;
67798;SDS011;54596;43.216;27.904;2022-09-09T13:50:09;6.97;;;2.65;;
67798;SDS011;54596;43.216;27.904;2022-09-09T13:52:46;9.07;;;3.20;;
67798;SDS011;54596;43.216;27.904;2022-09-09T13:55:16;8.60;;;3.42;;
67798;SDS011;54596;43.216;27.904;2022-09-09T13:57:55;7.78;;;3.05;;
67798;SDS011;54596;43.216;27.904;2022-09-09T14:00:25;7.88;;;3.28;;
67798;SDS011;54596;43.216;27.904;2022-09-09T14:02:53;8.45;;;3.15;;
67798;SDS011;54596;43.216;27.904;2022-09-09T14:05:20;8.15;;;3.13;;
67798;SDS011;54596;43.216;27.904;2022-09-09T14:07:47;9.07;;;3.03;;
67798;SDS011;54596;43.216;27.904;2022-09-09T14:10:13;8.95;;;3.28;;
67798;SDS011;54596;43.216;27.904;2022-09-09T14:12:39;10.27;;;3.40;;
67798;SDS011;54596;43.216;27.904;2022-09-09T14:15:05;7.13;;;3.53;;
67798;SDS011;54596;43.216;27.904;2022-09-09T14:17:32;9.50;;;3.38;;
67798;SDS011;54596;43.216;27.904;2022-09-09T14:19:58;8.40;;;3.45;;
67798;SDS011;54596;43.216;27.904;2022-09-09T14:22:24;7.70;;;3.50;;
67798;SDS011;54596;43.216;27.904;2022-09-09T14:24:50;8.45;;;3.30;;
67798;SDS011;54596;43.216;27.904;2022-09-09T14:27:16;9.45;;;3.70;;
67798;SDS011;54596;43.216;27.904;2022-09-09T14:29:42;8.90;;;3.50;;
67798;SDS011;54596;43.216;27.904;2022-09-09T14:32:09;9.95;;;3.58;;
67798;SDS011;54596;43.216;27.904;2022-09-09T14:34:35;10.18;;;3.35;;
67798;SDS011;54596;43.216;27.904;2022-09-09T14:37:00;8.32;;;3.55;;
67798;SDS011;54596;43.216;27.904;2022-09-09T14:39:26;8.48;;;3.30;;
67798;SDS011;54596;43.216;27.904;2022-09-09T14:41:51;9.32;;;3.78;;
67798;SDS011;54596;43.216;27.904;2022-09-09T14:44:17;8.85;;;3.22;;
67798;SDS011;54596;43.216;27.904;2022-09-09T14:46:43;6.63;;;3.15;;
67798;SDS011;54596;43.216;27.904;2022-09-09T14:49:09;9.07;;;3.50;;
67798;SDS011;54596;43.216;27.904;2022-09-09T14:51:38;6.72;;;3.00;;
67798;SDS011;54596;43.216;27.904;2022-09-09T14:54:03;7.65;;;3.38;;
67798;SDS011;54596;43.216;27.904;2022-09-09T14:56:30;8.98;;;3.13;;
67798;SDS011;54596;43.216;27.904;2022-09-09T14:58:57;7.47;;;3.20;;
67798;SDS011;54596;43.216;27.904;2022-09-09T15:01:26;8.52;;;3.38;;
67798;SDS011;54596;43.216;27.904;2022-09-09T15:03:59;8.05;;;3.38;;
67798;SDS011;54596;43.216;27.904;2022-09-09T15:06:27;7.38;;;3.20;;
67798;SDS011;54596;43.216;27.904;2022-09-09T15:08:54;10.60;;;3.70;;
67798;SDS011;54596;43.216;27.904;2022-09-09T15:11:23;11.60;;;3.60;;
67798;SDS011;54596;43.216;27.904;2022-09-09T15:13:51;8.70;;;3.90;;
67798;SDS011;54596;43.216;27.904;2022-09-09T15:16:20;9.80;;;4.40;;
67798;SDS011;54596;43.216;27.904;2022-09-09T15:18:50;7.75;;;3.60;;
67798;SDS011;54596;43.216;27.904;2022-09-09T15:21:18;7.85;;;3.58;;
67798;SDS011;54596;43.216;27.904;2022-09-09T15:23:46;7.95;;;3.10;;
67798;SDS011;54596;43.216;27.904;2022-09-09T15:26:16;8.30;;;3.72;;
67798;SDS011;54596;43.216;27.904;2022-09-09T15:28:43;7.97;;;3.20;;
67798;SDS011;54596;43.216;27.904;2022-09-09T15:31:17;9.05;;;4.18;;
67798;SDS011;54596;43.216;27.904;2022-09-09T15:33:54;9.70;;;3.58;;
67798;SDS011;54596;43.216;27.904;2022-09-09T15:38:57;12.50;;;3.83;;
67798;SDS011;54596;43.216;27.904;2022-09-09T15:41:23;9.68;;;3.05;;
67798;SDS011;54596;43.216;27.904;2022-09-09T15:43:50;7.75;;;3.30;;
67798;SDS011;54596;43.216;27.904;2022-09-09T15:48:42;10.75;;;4.13;;
67798;SDS011;54596;43.216;27.904;2022-09-09T15:51:09;8.98;;;3.47;;
67798;SDS011;54596;43.216;27.904;2022-09-09T15:53:35;11.60;;;4.00;;
67798;SDS011;54596;43.216;27.904;2022-09-09T15:56:04;9.52;;;3.78;;
67798;SDS011;54596;43.216;27.904;2022-09-09T15:58:31;8.07;;;3.63;;
67798;SDS011;54596;43.216;27.904;2022-09-09T16:01:07;7.65;;;4.03;;
67798;SDS011;54596;43.216;27.904;2022-09-09T16:03:40;7.35;;;3.30;;
67798;SDS011;54596;43.216;27.904;2022-09-09T16:06:07;8.75;;;3.80;;
67798;SDS011;54596;43.216;27.904;2022-09-09T16:08:43;9.13;;;3.67;;
67798;SDS011;54596;43.216;27.904;2022-09-09T16:11:12;9.07;;;3.70;;
67798;SDS011;54596;43.216;27.904;2022-09-09T16:13:40;10.35;;;3.80;;
67798;SDS011;54596;43.216;27.904;2022-09-09T16:16:07;9.13;;;3.63;;
67798;SDS011;54596;43.216;27.904;2022-09-09T16:18:35;9.73;;;3.70;;
67798;SDS011;54596;43.216;27.904;2022-09-09T16:21:01;8.40;;;3.38;;
67798;SDS011;54596;43.216;27.904;2022-09-09T16:23:28;11.93;;;4.03;;
67798;SDS011;54596;43.216;27.904;2022-09-09T16:25:56;8.40;;;3.67;;
67798;SDS011;54596;43.216;27.904;2022-09-09T16:28:22;11.05;;;3.90;;
67798;SDS011;54596;43.216;27.904;2022-09-09T16:30:48;9.50;;;4.10;;
67798;SDS011;54596;43.216;27.904;2022-09-09T16:33:14;10.43;;;4.40;;
67798;SDS011;54596;43.216;27.904;2022-09-09T16:35:41;9.85;;;3.83;;
67798;SDS011;54596;43.216;27.904;2022-09-09T16:38:06;10.40;;;3.85;;
67798;SDS011;54596;43.216;27.904;2022-09-09T16:40:38;10.25;;;4.30;;
67798;SDS011;54596;43.216;27.904;2022-09-09T16:43:06;9.60;;;3.70;;
67798;SDS011;54596;43.216;27.904;2022-09-09T16:45:32;9.05;;;3.50;;
67798;SDS011;54596;43.216;27.904;2022-09-09T16:47:58;12.70;;;3.97;;
67798;SDS011;54596;43.216;27.904;2022-09-09T16:50:25;10.88;;;3.85;;
67798;SDS011;54596;43.216;27.904;2022-09-09T16:52:51;13.73;;;3.95;;
67798;SDS011;54596;43.216;27.904;2022-09-09T16:55:18;11.20;;;4.00;;
67798;SDS011;54596;43.216;27.904;2022-09-09T16:57:45;9.25;;;3.95;;